createdAt,value
2017-01-29T09:48:03.920Z,25
2017-01-29T09:49:13.192Z,30
2017-01-29T09:50:22.913Z,35
2017-01-29T09:51:33.511Z,35
2017-01-29T09:52:44.550Z,35
2017-01-29T09:53:54.762Z,35
2017-01-29T09:55:05.796Z,35
2017-01-29T09:56:15.085Z,35
2017-01-29T09:57:25.242Z,30
2017-01-29T09:58:34.528Z,35
2017-01-29T09:59:44.304Z,40
2017-01-29T10:00:54.459Z,35
2017-01-29T10:02:03.738Z,35
2017-01-29T10:03:14.332Z,40
2017-01-29T10:04:24.491Z,45
2017-01-29T10:05:33.877Z,40
2017-01-29T10:06:43.583Z,45
2017-01-29T10:07:53.302Z,45
2017-01-29T10:09:03.031Z,45
2017-01-29T10:10:13.189Z,40
2017-01-29T10:11:22.541Z,40
2017-01-29T10:12:31.851Z,40
2017-01-29T10:13:41.577Z,45
2017-01-29T10:14:50.866Z,40
2017-01-29T10:16:00.151Z,45
2017-01-29T10:17:09.930Z,50
2017-01-29T10:18:19.217Z,50
2017-01-29T10:19:28.937Z,45
2017-01-29T10:20:38.684Z,45
2017-01-29T10:21:48.405Z,45
2017-01-29T10:22:58.181Z,45
2017-01-29T10:24:08.345Z,40
2017-01-29T10:25:18.511Z,40
2017-01-29T10:26:27.794Z,45
2017-01-29T10:27:37.948Z,45
2017-01-29T10:28:47.726Z,45
2017-01-29T10:29:57.890Z,45
2017-01-29T10:31:08.052Z,45
2017-01-29T10:32:17.342Z,45
2017-01-29T10:33:27.500Z,50
2017-01-29T10:34:37.274Z,45
2017-01-29T10:35:46.591Z,50
2017-01-29T10:36:56.312Z,50
2017-01-29T10:38:06.030Z,50
2017-01-29T10:39:15.755Z,45
2017-01-29T10:40:26.059Z,45
2017-01-29T10:41:35.782Z,50
2017-01-29T10:42:45.090Z,50
2017-01-29T10:43:54.809Z,50
2017-01-29T10:45:04.104Z,50
2017-01-29T10:46:14.354Z,50
2017-01-29T10:47:23.635Z,50
2017-01-29T10:48:34.238Z,50
2017-01-29T10:49:43.525Z,55
2017-01-29T10:50:53.689Z,55
2017-01-29T10:52:03.068Z,60
2017-01-29T10:53:13.227Z,60
2017-01-29T10:54:22.516Z,65
2017-01-29T10:55:31.850Z,65
2017-01-29T10:56:41.577Z,70
2017-01-29T10:57:52.259Z,70
2017-01-29T10:59:02.416Z,65
2017-01-29T11:00:12.578Z,65
2017-01-29T11:01:22.737Z,65
2017-01-29T11:02:32.022Z,70
2017-01-29T11:03:42.295Z,75
2017-01-29T11:04:52.014Z,75
2017-01-29T11:06:02.400Z,75
2017-01-29T11:07:12.133Z,70
2017-01-29T11:08:22.728Z,65
2017-01-29T11:09:32.944Z,70
2017-01-29T11:10:43.114Z,70
2017-01-29T11:11:53.284Z,65
2017-01-29T11:13:02.598Z,70
2017-01-29T11:14:12.321Z,70
2017-01-29T11:15:23.411Z,75
2017-01-29T11:16:32.701Z,75
2017-01-29T11:17:42.870Z,75
2017-01-29T11:18:53.034Z,80
2017-01-29T11:20:02.757Z,80
2017-01-29T11:21:12.093Z,85
2017-01-29T11:22:21.374Z,80
2017-01-29T11:23:31.101Z,85
2017-01-29T11:24:40.391Z,85
2017-01-29T11:25:51.751Z,85
2017-01-29T11:27:01.095Z,85
2017-01-29T11:28:10.814Z,80
2017-01-29T11:29:20.550Z,85
2017-01-29T11:30:32.555Z,75
2017-01-29T11:31:45.480Z,85
2017-01-29T11:32:59.973Z,90
2017-01-29T11:34:14.784Z,90
2017-01-29T11:35:28.288Z,90
2017-01-29T11:36:41.544Z,90
2017-01-29T11:37:56.599Z,95
2017-01-29T11:39:13.509Z,95
2017-01-29T11:40:25.642Z,95
2017-01-29T11:41:38.036Z,95
2017-01-29T11:42:57.821Z,90
2017-01-29T11:44:15.351Z,85
2017-01-29T11:45:28.127Z,85
2017-01-29T11:46:41.548Z,80
2017-01-29T11:47:54.656Z,80
2017-01-29T11:49:06.774Z,80
2017-01-29T11:50:19.013Z,80
2017-01-29T11:51:31.165Z,75
2017-01-29T11:52:41.215Z,80
2017-01-29T11:53:51.434Z,80
2017-01-29T11:55:00.721Z,75
2017-01-29T11:56:10.876Z,75
2017-01-29T11:57:20.601Z,80
2017-01-29T11:58:31.220Z,65
2017-01-29T11:59:41.001Z,75
2017-01-29T12:00:50.726Z,75
2017-01-29T12:02:00.443Z,75
2017-01-29T12:03:10.169Z,70
2017-01-29T12:04:19.911Z,70
2017-01-29T12:05:29.685Z,75
2017-01-29T12:06:39.850Z,75
2017-01-29T12:07:50.015Z,80
2017-01-29T12:09:00.642Z,70
2017-01-29T12:10:10.368Z,70
2017-01-29T12:11:27.137Z,70
2017-01-29T12:12:36.873Z,65
2017-01-29T12:13:46.598Z,65
2017-01-29T12:14:56.766Z,65
2017-01-29T12:16:06.488Z,65
2017-01-29T12:17:16.943Z,70
2017-01-29T12:18:26.252Z,70
2017-01-29T12:19:35.976Z,65
2017-01-29T12:20:45.698Z,65
2017-01-29T12:21:55.428Z,65
2017-01-29T12:23:04.775Z,60
2017-01-29T12:24:14.502Z,50
2017-01-29T12:25:24.215Z,50
2017-01-29T12:26:33.500Z,60
2017-01-29T12:27:43.227Z,50
2017-01-29T12:28:53.876Z,55
2017-01-29T12:30:05.409Z,60
2017-01-29T12:31:23.281Z,65
2017-01-29T12:32:34.490Z,70
2017-01-29T12:33:44.262Z,70
2017-01-29T12:34:53.982Z,75
2017-01-29T12:36:04.144Z,75
2017-01-29T12:37:14.311Z,70
2017-01-29T12:38:23.607Z,70
2017-01-29T12:39:32.956Z,70
2017-01-29T12:40:42.244Z,50
2017-01-29T12:41:51.966Z,45
2017-01-29T12:43:01.686Z,45
2017-01-29T12:44:11.852Z,45
2017-01-29T12:45:21.625Z,50
2017-01-29T12:46:30.916Z,55
2017-01-29T12:47:40.644Z,55
2017-01-29T12:48:50.367Z,55
2017-01-29T12:50:00.542Z,55
2017-01-29T12:51:10.754Z,55
2017-01-29T12:52:20.478Z,55
2017-01-29T12:53:30.296Z,60
2017-01-29T12:54:40.451Z,55
2017-01-29T12:55:50.611Z,55
2017-01-29T12:57:00.825Z,45
2017-01-29T12:58:10.994Z,40
2017-01-29T12:59:20.283Z,35
2017-01-29T13:00:29.611Z,35
2017-01-29T13:01:39.974Z,40
2017-01-29T13:02:49.307Z,50
2017-01-29T13:03:59.067Z,50
2017-01-29T13:05:08.369Z,50
2017-01-29T13:06:17.657Z,50
2017-01-29T13:07:26.942Z,50
2017-01-29T13:08:37.629Z,55
2017-01-29T13:09:47.800Z,55
2017-01-29T13:10:57.530Z,55
2017-01-29T13:12:07.895Z,55
2017-01-29T13:13:18.576Z,55
2017-01-29T13:14:28.807Z,60
2017-01-29T13:15:38.567Z,60
2017-01-29T13:16:48.345Z,60
2017-01-29T13:17:57.637Z,55
2017-01-29T13:19:07.805Z,50
2017-01-29T13:20:17.551Z,45
2017-01-29T13:21:26.839Z,45
2017-01-29T13:22:37.057Z,50
2017-01-29T13:23:47.227Z,45
2017-01-29T13:24:56.952Z,45
2017-01-29T13:26:06.249Z,45
2017-01-29T13:27:16.423Z,45
2017-01-29T13:28:25.759Z,50
2017-01-29T13:29:35.484Z,50
2017-01-29T13:30:45.216Z,50
2017-01-29T13:31:56.251Z,50
2017-01-29T13:33:05.970Z,50
2017-01-29T13:34:16.615Z,50
2017-01-29T13:35:26.775Z,45
2017-01-29T13:36:36.500Z,45
2017-01-29T13:37:45.792Z,45
2017-01-29T13:38:55.520Z,45
2017-01-29T13:40:05.739Z,50
2017-01-29T13:41:15.584Z,50
2017-01-29T13:42:25.768Z,45
2017-01-29T13:43:35.488Z,45
2017-01-29T13:44:44.780Z,40
2017-01-29T13:45:54.119Z,40
2017-01-29T13:47:04.287Z,40
2017-01-29T13:48:14.029Z,40
2017-01-29T13:49:23.310Z,35
2017-01-29T13:50:33.032Z,35
2017-01-29T13:51:42.804Z,35
2017-01-29T13:52:52.967Z,35
2017-01-29T13:54:02.691Z,35
2017-01-29T13:55:12.861Z,35
2017-01-29T13:56:23.027Z,40
2017-01-29T13:57:32.385Z,35
2017-01-29T13:58:42.107Z,35
2017-01-29T13:59:52.702Z,35
2017-01-29T14:01:02.435Z,40
2017-01-29T14:02:11.721Z,40
2017-01-29T14:03:22.380Z,40
2017-01-29T14:04:32.979Z,45
2017-01-29T14:05:42.270Z,40
2017-01-29T14:06:51.565Z,40
2017-01-29T14:08:00.872Z,40
2017-01-29T14:09:11.515Z,40
2017-01-29T14:10:20.801Z,40
2017-01-29T14:11:30.088Z,40
2017-01-29T14:12:40.257Z,40
2017-01-29T14:13:50.422Z,35
2017-01-29T14:15:00.200Z,35
2017-01-29T14:16:10.366Z,40
2017-01-29T14:17:20.531Z,35
2017-01-29T14:18:30.252Z,35
2017-01-29T14:19:39.973Z,35
2017-01-29T14:20:50.615Z,35
2017-01-29T14:22:00.339Z,35
2017-01-29T14:23:09.633Z,30
2017-01-29T14:24:19.349Z,30
2017-01-29T14:25:29.954Z,30
2017-01-29T14:26:39.729Z,30
2017-01-29T14:27:49.023Z,30
2017-01-29T14:28:58.751Z,25
2017-01-29T14:30:08.036Z,25
2017-01-29T14:31:18.193Z,25
2017-01-29T14:32:27.531Z,25
2017-01-29T14:33:36.824Z,25
2017-01-29T14:34:46.553Z,25
2017-01-29T14:35:55.862Z,25
2017-01-29T14:37:05.149Z,25
2017-01-29T14:38:15.360Z,25
2017-01-29T14:39:25.077Z,20
2017-01-29T14:40:35.679Z,20
2017-01-29T14:41:45.839Z,20
2017-01-29T14:42:55.564Z,20
2017-01-29T14:44:04.903Z,20
2017-01-29T14:45:14.194Z,20
2017-01-29T14:46:23.924Z,20
2017-01-29T14:47:33.640Z,20
2017-01-29T14:48:43.369Z,20
2017-01-29T14:49:53.142Z,20
2017-01-29T14:51:03.305Z,25
2017-01-29T14:52:13.470Z,20
2017-01-29T14:53:22.757Z,20
2017-01-29T14:54:33.355Z,20
2017-01-29T14:55:43.593Z,20
2017-01-29T14:56:53.318Z,15
2017-01-29T14:58:03.485Z,15
2017-01-29T14:59:13.213Z,15
2017-01-29T15:00:22.502Z,20
2017-01-29T15:01:31.843Z,15
2017-01-29T15:02:41.132Z,15
2017-01-29T15:03:50.859Z,15
2017-01-29T15:05:00.141Z,15
2017-01-29T15:06:10.738Z,15
2017-01-29T15:07:20.944Z,10
2017-01-29T15:08:30.231Z,10
2017-01-29T15:09:40.395Z,10
2017-01-29T15:10:49.674Z,10
2017-01-29T15:12:00.272Z,10
2017-01-29T15:13:10.043Z,10
2017-01-29T15:14:19.340Z,10
2017-01-29T15:15:29.945Z,10
2017-01-29T15:16:39.231Z,10
2017-01-29T15:17:48.519Z,10
2017-01-29T15:18:57.851Z,10
2017-01-29T15:20:08.016Z,10
2017-01-29T15:21:17.296Z,10
2017-01-29T15:22:27.036Z,10
2017-01-29T15:23:37.633Z,10
2017-01-29T15:24:47.837Z,10
2017-01-29T15:25:57.125Z,10
2017-01-29T15:27:06.422Z,10
2017-01-29T15:28:16.140Z,5
2017-01-29T15:29:26.303Z,5
2017-01-29T15:30:35.635Z,5
2017-01-29T15:31:45.361Z,5
2017-01-29T15:32:55.095Z,5
2017-01-29T15:34:04.382Z,5
2017-01-29T15:35:14.992Z,5
2017-01-29T15:36:25.213Z,5
2017-01-29T15:37:35.380Z,5
2017-01-29T15:38:45.132Z,5
2017-01-29T15:39:54.872Z,5
2017-01-29T15:41:04.171Z,5
2017-01-29T15:42:14.386Z,5
2017-01-29T15:43:24.561Z,5
2017-01-29T15:44:34.286Z,5
2017-01-29T15:45:43.581Z,5
2017-01-29T15:46:54.211Z,5
2017-01-29T15:48:04.089Z,0
2017-01-29T15:49:13.830Z,0
2017-01-29T15:50:24.443Z,0
2017-01-29T15:51:34.197Z,0
2017-01-29T15:52:43.979Z,0
2017-01-29T15:53:53.796Z,0
2017-01-29T15:55:03.992Z,0
2017-01-29T15:56:13.316Z,0
2017-01-29T15:57:22.618Z,0
2017-01-29T15:58:32.380Z,0
2017-01-29T15:59:42.185Z,0
2017-01-29T16:00:52.378Z,0
2017-01-29T16:02:02.126Z,0
2017-01-29T16:03:12.771Z,0
2017-01-29T16:04:22.524Z,0
2017-01-29T16:05:32.354Z,0
2017-01-29T16:06:42.164Z,0
2017-01-29T16:07:51.464Z,0
2017-01-29T16:09:02.094Z,0
2017-01-29T16:10:11.830Z,0
2017-01-29T16:11:21.627Z,0
2017-01-29T16:12:31.794Z,0
2017-01-29T16:13:41.567Z,0
2017-01-29T16:14:50.885Z,0
2017-01-29T16:16:00.618Z,0
2017-01-29T16:17:09.967Z,0
2017-01-29T16:18:19.694Z,0
2017-01-29T16:19:29.433Z,0
2017-01-29T16:20:38.746Z,0
2017-01-29T16:21:48.032Z,0
2017-01-29T16:22:57.829Z,0
2017-01-29T16:24:07.571Z,0
2017-01-29T16:25:17.747Z,0
2017-01-29T16:26:27.912Z,0
2017-01-29T16:27:37.656Z,0
2017-01-29T16:28:48.338Z,0
2017-01-29T16:29:58.532Z,0
2017-01-29T16:31:08.279Z,0
2017-01-29T16:32:18.053Z,0
2017-01-29T16:33:28.234Z,0
2017-01-29T16:34:38.577Z,0
2017-01-29T16:35:48.372Z,0
2017-01-29T16:36:57.730Z,0
2017-01-29T16:38:08.882Z,0
2017-01-29T16:39:19.510Z,0
2017-01-29T16:40:28.844Z,0
2017-01-29T16:41:38.153Z,0
2017-01-29T16:42:47.892Z,0
2017-01-29T16:43:57.179Z,0
2017-01-29T16:45:06.936Z,0
2017-01-29T16:46:16.320Z,0
2017-01-29T16:47:26.066Z,0
2017-01-29T16:48:35.403Z,0
2017-01-29T16:49:45.132Z,0
2017-01-29T16:50:55.337Z,0
2017-01-29T16:52:05.139Z,0
2017-01-29T16:53:15.327Z,0
2017-01-29T16:54:25.521Z,0
2017-01-29T16:55:35.739Z,0
2017-01-29T16:56:45.491Z,0
2017-01-29T16:57:55.311Z,0
2017-01-29T16:59:05.096Z,0
2017-01-29T17:00:15.751Z,0
2017-01-29T17:01:26.405Z,0
2017-01-29T17:02:37.121Z,0
2017-01-29T17:03:47.375Z,0
2017-01-29T17:04:57.543Z,0
2017-01-29T17:06:08.168Z,0
2017-01-29T17:07:17.935Z,0
2017-01-29T17:08:27.720Z,0
2017-01-29T17:09:37.102Z,0
2017-01-29T17:10:46.416Z,0
2017-01-29T17:11:56.247Z,0
2017-01-29T17:13:06.008Z,0
2017-01-29T17:14:15.294Z,0
2017-01-29T17:15:24.656Z,0
2017-01-29T17:16:34.856Z,0
2017-01-29T17:17:45.093Z,0
2017-01-29T17:18:55.275Z,0
2017-01-29T17:20:05.459Z,0
2017-01-29T17:21:14.810Z,0
2017-01-29T17:22:24.993Z,0
2017-01-29T17:23:34.717Z,0
2017-01-29T17:24:45.346Z,0
2017-01-29T17:25:55.086Z,0
2017-01-29T17:27:04.457Z,0
2017-01-29T17:28:14.635Z,0
2017-01-29T17:29:23.957Z,0
2017-01-29T17:30:33.693Z,0
2017-01-29T17:31:43.031Z,0
2017-01-29T17:32:52.384Z,0
2017-01-29T17:34:02.637Z,0
2017-01-29T17:35:11.955Z,0
2017-01-29T17:36:22.600Z,0
2017-01-29T17:37:32.829Z,0
2017-01-29T17:38:43.615Z,0
2017-01-29T17:39:53.860Z,0
2017-01-29T17:41:04.031Z,0
2017-01-29T17:42:14.210Z,0
2017-01-29T17:43:23.954Z,0
2017-01-29T17:44:33.450Z,0
2017-01-29T17:45:44.167Z,0
2017-01-29T17:46:54.393Z,0
2017-01-29T17:48:05.107Z,0
2017-01-29T17:49:15.374Z,0
2017-01-29T17:50:25.648Z,0
2017-01-29T17:51:36.391Z,0
2017-01-29T17:52:46.187Z,0
2017-01-29T17:53:56.445Z,0
2017-01-29T17:55:06.257Z,0
2017-01-29T17:56:17.056Z,0
2017-01-29T17:57:26.440Z,0
2017-01-29T17:58:36.788Z,0
2017-01-29T17:59:46.120Z,0
2017-01-29T18:00:56.376Z,0
2017-01-29T18:02:06.676Z,0
2017-01-29T18:03:17.522Z,0
2017-01-29T18:04:27.327Z,0
2017-01-29T18:05:38.512Z,0
2017-01-29T18:06:47.918Z,0
2017-01-29T18:07:57.788Z,0
2017-01-29T18:09:07.656Z,0
2017-01-29T18:10:17.902Z,0
2017-01-29T18:11:27.228Z,0
2017-01-29T18:12:37.476Z,0
2017-01-29T18:13:46.833Z,0
2017-01-29T18:14:57.563Z,0
2017-01-29T18:16:07.778Z,0
2017-01-29T18:17:18.443Z,0
2017-01-29T18:18:29.186Z,0
2017-01-29T18:19:38.588Z,0
2017-01-29T18:20:48.401Z,0
2017-01-29T18:21:58.691Z,0
2017-01-29T18:23:08.485Z,0
2017-01-29T18:24:18.254Z,0
2017-01-29T18:25:28.530Z,0
2017-01-29T18:26:39.208Z,0
2017-01-29T18:27:50.384Z,0
2017-01-29T18:29:00.134Z,0
2017-01-29T18:30:10.441Z,0
2017-01-29T18:31:19.825Z,0
2017-01-29T18:32:30.191Z,0
2017-01-29T18:33:40.482Z,0
2017-01-29T18:34:50.878Z,0
2017-01-29T18:36:00.743Z,0
2017-01-29T18:37:11.407Z,0
2017-01-29T18:38:21.365Z,0
2017-01-29T18:39:32.339Z,0
2017-01-29T18:40:42.896Z,0
2017-01-29T18:41:52.837Z,0
2017-01-29T18:43:03.902Z,0
2017-01-29T18:44:15.218Z,0
2017-01-29T18:45:26.071Z,0
2017-01-29T18:46:36.084Z,0
2017-01-29T18:47:46.693Z,0
2017-01-29T18:48:57.222Z,0
2017-01-29T18:50:08.063Z,0
2017-01-29T18:51:19.021Z,0
2017-01-29T18:52:29.527Z,0
2017-01-29T18:53:40.034Z,0
2017-01-29T18:54:49.506Z,0
2017-01-29T18:55:59.979Z,0
2017-01-29T18:57:10.786Z,0
2017-01-29T18:58:21.736Z,0
2017-01-29T18:59:32.142Z,0
2017-01-29T19:00:42.984Z,0
2017-01-29T19:01:53.474Z,0
2017-01-29T19:03:04.042Z,0
2017-01-29T19:04:14.234Z,0
2017-01-29T19:05:24.302Z,0
2017-01-29T19:06:35.169Z,0
2017-01-29T19:07:45.716Z,0
2017-01-29T19:08:57.606Z,0
2017-01-29T19:10:07.183Z,0
2017-01-29T19:11:18.269Z,0
2017-01-29T19:12:29.362Z,0
2017-01-29T19:13:40.195Z,0
2017-01-29T19:14:50.133Z,0
2017-01-29T19:16:00.096Z,0
2017-01-29T19:17:10.553Z,0
2017-01-29T19:18:21.106Z,0
2017-01-29T19:19:31.422Z,0
2017-01-29T19:20:42.362Z,0
2017-01-29T19:21:52.835Z,0
2017-01-29T19:23:03.699Z,0
2017-01-29T19:24:13.839Z,0
2017-01-29T19:25:23.442Z,0
2017-01-29T19:26:34.487Z,0
2017-01-29T19:27:45.930Z,0
2017-01-29T19:28:55.898Z,0
2017-01-29T19:30:06.623Z,0
2017-01-29T19:31:18.108Z,0
2017-01-29T19:32:27.983Z,0
2017-01-29T19:33:38.795Z,0
2017-01-29T19:34:48.568Z,0
2017-01-29T19:35:58.380Z,0
2017-01-29T19:37:08.549Z,0
2017-01-29T19:38:19.161Z,0
2017-01-29T19:39:29.328Z,0
2017-01-29T19:40:39.099Z,0
2017-01-29T19:41:49.328Z,0
2017-01-29T19:42:58.633Z,0
2017-01-29T19:44:08.358Z,0
2017-01-29T19:45:18.544Z,0
2017-01-29T19:46:28.273Z,0
2017-01-29T19:47:38.944Z,0
2017-01-29T19:48:49.107Z,0
2017-01-29T19:49:58.392Z,0
2017-01-29T19:51:08.116Z,0
2017-01-29T19:52:17.858Z,0
2017-01-29T19:53:27.196Z,0
2017-01-29T19:54:37.348Z,0
2017-01-29T19:55:46.654Z,0
2017-01-29T19:56:55.939Z,0
2017-01-29T19:58:05.232Z,0
2017-01-29T19:59:14.593Z,0
2017-01-29T20:00:24.752Z,0
2017-01-29T20:01:35.367Z,0
2017-01-29T20:02:45.522Z,0
2017-01-29T20:03:55.688Z,0
2017-01-29T20:05:05.907Z,0
2017-01-29T20:06:16.068Z,0
2017-01-29T20:07:25.789Z,0
2017-01-29T20:08:35.518Z,0
2017-01-29T20:09:45.238Z,0
2017-01-29T20:10:55.456Z,0
2017-01-29T20:12:05.176Z,0
2017-01-29T20:13:14.465Z,0
2017-01-29T20:14:24.187Z,0
2017-01-29T20:15:33.469Z,0
2017-01-29T20:16:43.674Z,0
2017-01-29T20:17:52.984Z,0
2017-01-29T20:19:02.272Z,0
2017-01-29T20:20:12.869Z,0
2017-01-29T20:21:22.591Z,0
2017-01-29T20:22:32.364Z,0
2017-01-29T20:23:41.654Z,0
2017-01-29T20:24:51.379Z,0
2017-01-29T20:26:00.668Z,0
2017-01-29T20:27:10.401Z,0
2017-01-29T20:28:19.743Z,0
2017-01-29T20:29:29.467Z,0
2017-01-29T20:30:39.191Z,0
2017-01-29T20:31:49.357Z,0
2017-01-29T20:32:59.515Z,0
2017-01-29T20:34:09.290Z,0
2017-01-29T20:35:19.005Z,0
2017-01-29T20:36:28.309Z,0
2017-01-29T20:37:38.035Z,0
2017-01-29T20:38:47.325Z,0
2017-01-29T20:39:57.105Z,0
2017-01-29T20:41:07.264Z,0
2017-01-29T20:42:16.552Z,0
2017-01-29T20:43:26.281Z,0
2017-01-29T20:44:36.446Z,0
2017-01-29T20:45:47.127Z,0
2017-01-29T20:46:57.290Z,0
2017-01-29T20:48:06.597Z,0
2017-01-29T20:49:16.319Z,0
2017-01-29T20:50:26.477Z,0
2017-01-29T20:51:35.809Z,0
2017-01-29T20:52:45.094Z,0
2017-01-29T20:53:54.823Z,0
2017-01-29T20:55:04.540Z,0
2017-01-29T20:56:14.266Z,0
2017-01-29T20:57:24.031Z,0
2017-01-29T20:58:33.748Z,0
2017-01-29T20:59:43.477Z,0
2017-01-29T21:00:53.207Z,0
2017-01-29T21:02:02.500Z,0
2017-01-29T21:03:12.270Z,0
2017-01-29T21:04:22.425Z,0
2017-01-29T21:05:32.583Z,0
2017-01-29T21:06:42.300Z,0
2017-01-29T21:07:51.589Z,0
2017-01-29T21:09:01.805Z,0
2017-01-29T21:10:12.438Z,0
2017-01-29T21:11:21.724Z,0
2017-01-29T21:12:31.889Z,0
2017-01-29T21:13:41.174Z,0
2017-01-29T21:14:50.520Z,0
2017-01-29T21:16:00.236Z,0
2017-01-29T21:17:09.529Z,0
2017-01-29T21:18:19.255Z,0
2017-01-29T21:19:28.971Z,0
2017-01-29T21:20:38.753Z,0
2017-01-29T21:21:48.474Z,0
2017-01-29T21:22:58.631Z,0
2017-01-29T21:24:07.916Z,0
2017-01-29T21:25:18.509Z,0
2017-01-29T21:26:28.714Z,0
2017-01-29T21:27:38.437Z,0
2017-01-29T21:28:48.157Z,0
2017-01-29T21:29:57.878Z,0
2017-01-29T21:31:08.038Z,0
2017-01-29T21:32:18.257Z,0
2017-01-29T21:33:27.543Z,0
2017-01-29T21:34:36.843Z,0
2017-01-29T21:35:46.132Z,0
2017-01-29T21:36:55.413Z,0
2017-01-29T21:38:05.627Z,0
2017-01-29T21:39:15.345Z,0
2017-01-29T21:40:25.936Z,0
2017-01-29T21:41:36.531Z,0
2017-01-29T21:42:46.256Z,0
2017-01-29T21:43:55.635Z,0
2017-01-29T21:45:04.911Z,0
2017-01-29T21:46:15.071Z,0
2017-01-29T21:47:24.795Z,0
2017-01-29T21:48:34.957Z,0
2017-01-29T21:49:44.722Z,0
2017-01-29T21:50:54.884Z,0
2017-01-29T21:52:04.604Z,0
2017-01-29T21:53:14.334Z,0
2017-01-29T21:54:23.622Z,0
2017-01-29T21:55:33.830Z,0
2017-01-29T21:56:43.120Z,0
2017-01-29T21:57:52.839Z,0
2017-01-29T21:59:02.127Z,0
2017-01-29T22:00:12.321Z,0
2017-01-29T22:01:22.580Z,0
2017-01-29T22:02:32.305Z,0
2017-01-29T22:03:42.025Z,0
2017-01-29T22:04:51.748Z,0
2017-01-29T22:06:01.476Z,0
2017-01-29T22:07:11.691Z,0
2017-01-29T22:08:21.409Z,0
2017-01-29T22:09:31.164Z,0
2017-01-29T22:10:41.315Z,0
2017-01-29T22:11:51.476Z,0
2017-01-29T22:13:00.818Z,0
2017-01-29T22:14:11.416Z,0
2017-01-29T22:15:20.692Z,0
2017-01-29T22:16:30.869Z,0
2017-01-29T22:17:41.036Z,0
2017-01-29T22:18:50.372Z,0
2017-01-29T22:20:00.094Z,0
2017-01-29T22:21:10.252Z,0
2017-01-29T22:22:19.969Z,0
2017-01-29T22:23:29.684Z,0
2017-01-29T22:24:39.897Z,0
2017-01-29T22:25:50.493Z,0
2017-01-29T22:26:59.782Z,0
2017-01-29T22:28:09.948Z,0
2017-01-29T22:29:19.669Z,0
2017-01-29T22:30:29.440Z,0
2017-01-29T22:31:40.033Z,0
2017-01-29T22:32:49.799Z,0
2017-01-29T22:33:59.089Z,0
2017-01-29T22:35:08.808Z,0
2017-01-29T22:36:19.024Z,0
2017-01-29T22:37:29.181Z,0
2017-01-29T22:38:39.779Z,0
2017-01-29T22:39:49.060Z,0
2017-01-29T22:40:58.784Z,0
2017-01-29T22:42:08.998Z,0
2017-01-29T22:43:18.282Z,0
2017-01-29T22:44:28.447Z,0
2017-01-29T22:45:38.606Z,0
2017-01-29T22:46:47.885Z,0
2017-01-29T22:47:58.118Z,0
2017-01-29T22:49:08.716Z,0
2017-01-29T22:50:18.873Z,0
2017-01-29T22:51:28.594Z,0
2017-01-29T22:52:38.749Z,0
2017-01-29T22:53:48.517Z,0
2017-01-29T22:54:58.243Z,0
2017-01-29T22:56:08.405Z,0
2017-01-29T22:57:17.690Z,0
2017-01-29T22:58:27.415Z,0
2017-01-29T22:59:37.197Z,0
2017-01-29T23:00:47.359Z,0
2017-01-29T23:01:57.106Z,0
2017-01-29T23:03:07.297Z,0
2017-01-29T23:04:17.018Z,0
2017-01-29T23:05:26.349Z,0
2017-01-29T23:06:36.504Z,0
2017-01-29T23:07:46.225Z,0
2017-01-29T23:08:55.940Z,0
2017-01-29T23:10:06.103Z,0
2017-01-29T23:11:15.437Z,0
2017-01-29T23:12:24.717Z,0
2017-01-29T23:13:34.877Z,0
2017-01-29T23:14:44.151Z,0
2017-01-29T23:15:54.313Z,0
2017-01-29T23:17:04.962Z,0
2017-01-29T23:18:15.124Z,0
2017-01-29T23:19:24.849Z,0
2017-01-29T23:20:35.002Z,0
2017-01-29T23:21:44.731Z,0
2017-01-29T23:22:55.380Z,0
2017-01-29T23:24:05.548Z,0
2017-01-29T23:25:15.714Z,0
2017-01-29T23:26:25.869Z,0
2017-01-29T23:27:35.588Z,0
2017-01-29T23:28:45.371Z,0
2017-01-29T23:29:55.531Z,0
2017-01-29T23:31:04.820Z,0
2017-01-29T23:32:14.108Z,0
2017-01-29T23:33:24.701Z,0
2017-01-29T23:34:34.907Z,0
2017-01-29T23:35:44.624Z,0
2017-01-29T23:36:55.219Z,0
2017-01-29T23:38:06.258Z,0
2017-01-29T23:39:15.978Z,0
2017-01-29T23:40:26.183Z,0
2017-01-29T23:41:35.468Z,0
2017-01-29T23:42:44.752Z,0
2017-01-29T23:43:54.911Z,0
2017-01-29T23:45:04.634Z,0
2017-01-29T23:46:14.840Z,0
2017-01-29T23:47:24.998Z,0
2017-01-29T23:48:34.722Z,0
2017-01-29T23:49:44.445Z,0
2017-01-29T23:50:54.603Z,0
2017-01-29T23:52:04.389Z,0
2017-01-29T23:53:14.112Z,0
2017-01-29T23:54:24.712Z,0
2017-01-29T23:55:34.880Z,0
2017-01-29T23:56:45.037Z,0
2017-01-29T23:57:55.250Z,0
2017-01-29T23:59:05.409Z,0
